sensor_id;sensor_type;location;lat;lon;timestamp;noise_LAeq;noise_LA_min;noise_LA_max;noise_LA01;noise_LA95
82130;Laerm;75912;50.450;9.816;2024-03-22T00:02:13;33.80;32.74;35.50;;
82130;Laerm;75912;50.450;9.816;2024-03-22T00:04:39;48.50;33.27;64.04;;
82130;Laerm;75912;50.450;9.816;2024-03-22T00:07:04;34.30;33.24;35.93;;
82130;Laerm;75912;50.450;9.816;2024-03-22T00:09:30;52.97;33.70;68.09;;
82130;Laerm;75912;50.450;9.816;2024-03-22T00:11:55;53.54;34.48;71.03;;
82130;Laerm;75912;50.450;9.816;2024-03-22T00:14:21;58.35;34.14;78.23;;
82130;Laerm;75912;50.450;9.816;2024-03-22T00:16:46;37.38;33.73;48.46;;
82130;Laerm;75912;50.450;9.816;2024-03-22T00:19:11;57.23;33.56;76.65;;
82130;Laerm;75912;50.450;9.816;2024-03-22T00:21:37;57.93;33.25;76.45;;
82130;Laerm;75912;50.450;9.816;2024-03-22T00:24:02;49.11;32.66;67.64;;
82130;Laerm;75912;50.450;9.816;2024-03-22T00:26:28;51.41;32.50;70.12;;
82130;Laerm;75912;50.450;9.816;2024-03-22T00:28:54;49.38;32.82;68.14;;
82130;Laerm;75912;50.450;9.816;2024-03-22T00:31:19;57.98;33.83;77.28;;
82130;Laerm;75912;50.450;9.816;2024-03-22T00:33:44;50.73;33.47;66.39;;
82130;Laerm;75912;50.450;9.816;2024-03-22T00:36:10;34.36;32.84;38.52;;
82130;Laerm;75912;50.450;9.816;2024-03-22T00:38:35;34.38;32.96;36.33;;
82130;Laerm;75912;50.450;9.816;2024-03-22T00:41:00;50.47;32.79;69.84;;
82130;Laerm;75912;50.450;9.816;2024-03-22T00:43:26;34.08;32.65;37.61;;
82130;Laerm;75912;50.450;9.816;2024-03-22T00:45:51;47.72;32.99;65.91;;
82130;Laerm;75912;50.450;9.816;2024-03-22T00:48:17;52.25;32.88;70.06;;
82130;Laerm;75912;50.450;9.816;2024-03-22T00:50:43;52.64;33.31;68.24;;
82130;Laerm;75912;50.450;9.816;2024-03-22T00:53:08;55.74;33.41;73.93;;
82130;Laerm;75912;50.450;9.816;2024-03-22T00:55:34;53.68;33.57;69.26;;
82130;Laerm;75912;50.450;9.816;2024-03-22T00:58:00;37.96;33.32;52.70;;
82130;Laerm;75912;50.450;9.816;2024-03-22T01:00:25;53.02;32.98;70.51;;
82130;Laerm;75912;50.450;9.816;2024-03-22T01:02:50;46.09;32.91;63.80;;
82130;Laerm;75912;50.450;9.816;2024-03-22T01:05:16;53.69;33.12;72.86;;
82130;Laerm;75912;50.450;9.816;2024-03-22T01:07:42;50.68;32.90;66.43;;
82130;Laerm;75912;50.450;9.816;2024-03-22T01:10:07;34.06;32.87;39.28;;
82130;Laerm;75912;50.450;9.816;2024-03-22T01:12:32;34.70;33.50;36.50;;
82130;Laerm;75912;50.450;9.816;2024-03-22T01:14:58;34.76;33.40;36.77;;
82130;Laerm;75912;50.450;9.816;2024-03-22T01:17:24;57.08;33.84;74.32;;
82130;Laerm;75912;50.450;9.816;2024-03-22T01:19:49;55.00;34.46;73.81;;
82130;Laerm;75912;50.450;9.816;2024-03-22T01:22:15;59.84;33.47;74.20;;
82130;Laerm;75912;50.450;9.816;2024-03-22T01:24:41;50.81;32.93;64.55;;
82130;Laerm;75912;50.450;9.816;2024-03-22T01:27:06;58.57;33.89;73.77;;
82130;Laerm;75912;50.450;9.816;2024-03-22T01:29:31;51.30;33.01;69.12;;
82130;Laerm;75912;50.450;9.816;2024-03-22T01:31:59;53.60;34.81;71.75;;
82130;Laerm;75912;50.450;9.816;2024-03-22T01:34:25;59.15;34.80;76.33;;
82130;Laerm;75912;50.450;9.816;2024-03-22T01:36:51;55.11;34.24;74.66;;
82130;Laerm;75912;50.450;9.816;2024-03-22T01:39:18;52.83;33.82;71.70;;
82130;Laerm;75912;50.450;9.816;2024-03-22T01:41:46;55.57;33.47;72.14;;
82130;Laerm;75912;50.450;9.816;2024-03-22T01:44:11;34.58;32.82;37.98;;
82130;Laerm;75912;50.450;9.816;2024-03-22T01:46:38;52.83;33.32;68.53;;
82130;Laerm;75912;50.450;9.816;2024-03-22T01:49:04;52.43;33.14;69.57;;
82130;Laerm;75912;50.450;9.816;2024-03-22T01:51:29;50.24;33.33;66.14;;
82130;Laerm;75912;50.450;9.816;2024-03-22T01:53:55;56.20;34.00;71.85;;
82130;Laerm;75912;50.450;9.816;2024-03-22T01:56:20;47.01;33.86;64.03;;
82130;Laerm;75912;50.450;9.816;2024-03-22T01:58:46;34.82;33.70;36.59;;
82130;Laerm;75912;50.450;9.816;2024-03-22T02:01:13;46.45;33.48;64.66;;
82130;Laerm;75912;50.450;9.816;2024-03-22T02:03:38;48.15;33.07;66.55;;
82130;Laerm;75912;50.450;9.816;2024-03-22T02:06:03;57.80;33.61;77.95;;
82130;Laerm;75912;50.450;9.816;2024-03-22T02:08:29;36.38;33.13;46.99;;
82130;Laerm;75912;50.450;9.816;2024-03-22T02:10:54;34.83;33.37;39.28;;
82130;Laerm;75912;50.450;9.816;2024-03-22T02:13:20;56.23;34.02;72.07;;
82130;Laerm;75912;50.450;9.816;2024-03-22T02:15:45;34.64;33.49;35.98;;
82130;Laerm;75912;50.450;9.816;2024-03-22T02:18:10;34.82;33.72;36.62;;
82130;Laerm;75912;50.450;9.816;2024-03-22T02:20:36;34.80;33.69;36.75;;
82130;Laerm;75912;50.450;9.816;2024-03-22T02:23:01;55.09;34.01;71.43;;
82130;Laerm;75912;50.450;9.816;2024-03-22T02:25:26;60.73;34.67;79.73;;
82130;Laerm;75912;50.450;9.816;2024-03-22T02:27:52;56.14;34.45;70.26;;
82130;Laerm;75912;50.450;9.816;2024-03-22T02:30:18;46.91;33.17;65.96;;
82130;Laerm;75912;50.450;9.816;2024-03-22T02:32:43;34.73;33.42;37.10;;
82130;Laerm;75912;50.450;9.816;2024-03-22T02:35:08;36.30;33.77;39.57;;
82130;Laerm;75912;50.450;9.816;2024-03-22T02:37:34;57.09;35.11;73.98;;
82130;Laerm;75912;50.450;9.816;2024-03-22T02:39:59;59.34;35.57;74.18;;
82130;Laerm;75912;50.450;9.816;2024-03-22T02:42:24;58.83;34.06;74.61;;
82130;Laerm;75912;50.450;9.816;2024-03-22T02:44:50;35.83;33.88;41.68;;
82130;Laerm;75912;50.450;9.816;2024-03-22T02:47:15;53.31;33.38;71.23;;
82130;Laerm;75912;50.450;9.816;2024-03-22T02:49:40;51.33;34.05;68.71;;
82130;Laerm;75912;50.450;9.816;2024-03-22T02:52:06;35.43;33.33;44.71;;
82130;Laerm;75912;50.450;9.816;2024-03-22T02:54:31;48.12;33.91;65.70;;
82130;Laerm;75912;50.450;9.816;2024-03-22T02:56:57;53.92;34.71;73.35;;
82130;Laerm;75912;50.450;9.816;2024-03-22T02:59:25;36.92;34.65;43.05;;
82130;Laerm;75912;50.450;9.816;2024-03-22T03:01:53;58.86;34.96;74.38;;
82130;Laerm;75912;50.450;9.816;2024-03-22T03:04:18;54.06;34.36;70.51;;
82130;Laerm;75912;50.450;9.816;2024-03-22T03:06:43;50.86;33.81;68.51;;
82130;Laerm;75912;50.450;9.816;2024-03-22T03:09:10;56.66;34.03;74.96;;
82130;Laerm;75912;50.450;9.816;2024-03-22T03:11:36;57.19;34.20;75.80;;
82130;Laerm;75912;50.450;9.816;2024-03-22T03:14:02;50.78;33.95;70.60;;
82130;Laerm;75912;50.450;9.816;2024-03-22T03:16:27;35.43;33.98;40.14;;
82130;Laerm;75912;50.450;9.816;2024-03-22T03:18:52;54.40;34.91;72.81;;
82130;Laerm;75912;50.450;9.816;2024-03-22T03:21:18;51.24;34.70;67.09;;
82130;Laerm;75912;50.450;9.816;2024-03-22T03:23:43;56.19;35.11;75.09;;
82130;Laerm;75912;50.450;9.816;2024-03-22T03:26:09;56.44;34.78;75.55;;
82130;Laerm;75912;50.450;9.816;2024-03-22T03:28:34;51.08;34.84;69.77;;
82130;Laerm;75912;50.450;9.816;2024-03-22T03:30:59;61.88;37.48;80.62;;
82130;Laerm;75912;50.450;9.816;2024-03-22T03:33:25;56.20;35.05;70.69;;
82130;Laerm;75912;50.450;9.816;2024-03-22T03:35:50;58.70;34.46;73.21;;
82130;Laerm;75912;50.450;9.816;2024-03-22T03:38:15;47.36;34.50;66.00;;
82130;Laerm;75912;50.450;9.816;2024-03-22T03:40:40;53.58;34.78;73.05;;
82130;Laerm;75912;50.450;9.816;2024-03-22T03:43:06;36.85;35.01;42.22;;
82130;Laerm;75912;50.450;9.816;2024-03-22T03:45:31;37.24;35.08;43.22;;
82130;Laerm;75912;50.450;9.816;2024-03-22T03:47:56;55.48;35.24;73.61;;
82130;Laerm;75912;50.450;9.816;2024-03-22T03:50:22;55.06;35.19;68.56;;
82130;Laerm;75912;50.450;9.816;2024-03-22T03:52:47;59.29;34.80;79.28;;
82130;Laerm;75912;50.450;9.816;2024-03-22T03:55:12;59.21;35.90;74.91;;
82130;Laerm;75912;50.450;9.816;2024-03-22T03:57:38;54.88;35.24;69.16;;
82130;Laerm;75912;50.450;9.816;2024-03-22T04:00:03;57.47;35.54;71.06;;
82130;Laerm;75912;50.450;9.816;2024-03-22T04:02:29;50.59;35.13;68.96;;
82130;Laerm;75912;50.450;9.816;2024-03-22T04:04:54;57.72;36.56;80.07;;
82130;Laerm;75912;50.450;9.816;2024-03-22T04:07:20;58.78;36.73;75.78;;
82130;Laerm;75912;50.450;9.816;2024-03-22T04:09:45;57.93;37.09;73.19;;
82130;Laerm;75912;50.450;9.816;2024-03-22T04:12:11;52.68;34.88;69.03;;
82130;Laerm;75912;50.450;9.816;2024-03-22T04:14:36;60.59;37.25;74.69;;
82130;Laerm;75912;50.450;9.816;2024-03-22T04:17:01;49.74;35.00;64.79;;
82130;Laerm;75912;50.450;9.816;2024-03-22T04:19:27;57.64;35.35;71.90;;
82130;Laerm;75912;50.450;9.816;2024-03-22T04:21:53;59.19;38.32;74.56;;
82130;Laerm;75912;50.450;9.816;2024-03-22T04:24:18;60.95;37.00;73.69;;
82130;Laerm;75912;50.450;9.816;2024-03-22T04:26:43;58.22;37.22;70.83;;
82130;Laerm;75912;50.450;9.816;2024-03-22T04:29:09;57.03;38.66;74.50;;
82130;Laerm;75912;50.450;9.816;2024-03-22T04:31:34;59.95;39.87;72.37;;
82130;Laerm;75912;50.450;9.816;2024-03-22T04:33:59;61.16;40.73;77.06;;
82130;Laerm;75912;50.450;9.816;2024-03-22T04:36:25;55.96;37.75;70.91;;
82130;Laerm;75912;50.450;9.816;2024-03-22T04:38:50;56.43;39.88;69.60;;
82130;Laerm;75912;50.450;9.816;2024-03-22T04:41:15;60.65;40.26;71.57;;
82130;Laerm;75912;50.450;9.816;2024-03-22T04:43:41;58.40;38.03;71.88;;
82130;Laerm;75912;50.450;9.816;2024-03-22T04:46:06;59.22;39.30;69.42;;
82130;Laerm;75912;50.450;9.816;2024-03-22T04:48:31;58.58;38.11;73.10;;
82130;Laerm;75912;50.450;9.816;2024-03-22T04:50:57;56.30;37.86;69.69;;
82130;Laerm;75912;50.450;9.816;2024-03-22T04:53:22;61.42;40.82;75.96;;
82130;Laerm;75912;50.450;9.816;2024-03-22T04:55:47;58.88;39.34;69.80;;
82130;Laerm;75912;50.450;9.816;2024-03-22T04:58:14;59.00;39.06;72.45;;
82130;Laerm;75912;50.450;9.816;2024-03-22T05:00:43;54.55;37.08;70.17;;
82130;Laerm;75912;50.450;9.816;2024-03-22T05:03:08;60.65;37.82;71.75;;
82130;Laerm;75912;50.450;9.816;2024-03-22T05:05:34;62.26;40.52;75.08;;
82130;Laerm;75912;50.450;9.816;2024-03-22T05:08:02;55.57;36.67;70.34;;
82130;Laerm;75912;50.450;9.816;2024-03-22T05:10:29;55.68;36.97;71.19;;
82130;Laerm;75912;50.450;9.816;2024-03-22T05:12:54;61.28;39.00;76.74;;
82130;Laerm;75912;50.450;9.816;2024-03-22T05:15:20;54.81;37.62;68.02;;
82130;Laerm;75912;50.450;9.816;2024-03-22T05:17:45;59.71;38.60;71.95;;
82130;Laerm;75912;50.450;9.816;2024-03-22T05:20:10;64.13;40.58;74.95;;
82130;Laerm;75912;50.450;9.816;2024-03-22T05:22:37;61.64;39.72;74.62;;
82130;Laerm;75912;50.450;9.816;2024-03-22T05:25:02;60.99;39.68;74.29;;
82130;Laerm;75912;50.450;9.816;2024-03-22T05:27:28;60.63;40.39;73.84;;
82130;Laerm;75912;50.450;9.816;2024-03-22T05:29:53;62.13;38.87;76.12;;
82130;Laerm;75912;50.450;9.816;2024-03-22T05:32:19;61.04;38.94;74.27;;
82130;Laerm;75912;50.450;9.816;2024-03-22T05:34:44;57.36;37.14;69.96;;
82130;Laerm;75912;50.450;9.816;2024-03-22T05:37:10;60.32;37.14;71.90;;
82130;Laerm;75912;50.450;9.816;2024-03-22T05:39:36;59.89;39.03;74.23;;
82130;Laerm;75912;50.450;9.816;2024-03-22T05:42:01;58.56;38.33;70.69;;
82130;Laerm;75912;50.450;9.816;2024-03-22T05:44:27;62.69;37.81;74.00;;
82130;Laerm;75912;50.450;9.816;2024-03-22T05:46:52;61.52;42.10;78.60;;
82130;Laerm;75912;50.450;9.816;2024-03-22T05:49:17;60.79;37.10;77.07;;
82130;Laerm;75912;50.450;9.816;2024-03-22T05:51:43;62.17;39.12;73.64;;
82130;Laerm;75912;50.450;9.816;2024-03-22T05:54:08;64.84;43.39;76.39;;
82130;Laerm;75912;50.450;9.816;2024-03-22T05:56:33;58.41;39.11;74.89;;
82130;Laerm;75912;50.450;9.816;2024-03-22T05:58:59;60.55;38.85;71.79;;
82130;Laerm;75912;50.450;9.816;2024-03-22T06:01:24;61.67;38.98;74.95;;
82130;Laerm;75912;50.450;9.816;2024-03-22T06:03:50;61.68;40.16;74.15;;
82130;Laerm;75912;50.450;9.816;2024-03-22T06:06:15;59.09;39.21;71.23;;
82130;Laerm;75912;50.450;9.816;2024-03-22T06:08:41;63.25;41.93;77.84;;
82130;Laerm;75912;50.450;9.816;2024-03-22T06:11:08;61.75;41.06;73.46;;
82130;Laerm;75912;50.450;9.816;2024-03-22T06:13:34;61.68;39.96;73.04;;
82130;Laerm;75912;50.450;9.816;2024-03-22T06:16:00;64.35;40.54;77.88;;
82130;Laerm;75912;50.450;9.816;2024-03-22T06:18:25;59.76;38.92;72.15;;
82130;Laerm;75912;50.450;9.816;2024-03-22T06:20:50;66.55;42.16;80.34;;
82130;Laerm;75912;50.450;9.816;2024-03-22T06:23:19;61.58;39.31;73.85;;
82130;Laerm;75912;50.450;9.816;2024-03-22T06:25:50;61.36;40.12;73.49;;
82130;Laerm;75912;50.450;9.816;2024-03-22T06:28:16;59.65;39.81;73.64;;
82130;Laerm;75912;50.450;9.816;2024-03-22T06:30:41;67.28;43.11;81.14;;
82130;Laerm;75912;50.450;9.816;2024-03-22T06:33:06;58.86;39.45;72.60;;
82130;Laerm;75912;50.450;9.816;2024-03-22T06:35:32;62.10;39.96;73.95;;
82130;Laerm;75912;50.450;9.816;2024-03-22T06:37:57;63.66;42.95;75.35;;
82130;Laerm;75912;50.450;9.816;2024-03-22T06:40:22;62.28;40.84;75.89;;
82130;Laerm;75912;50.450;9.816;2024-03-22T06:42:48;64.18;42.62;76.81;;
82130;Laerm;75912;50.450;9.816;2024-03-22T06:45:13;62.54;40.04;74.14;;
82130;Laerm;75912;50.450;9.816;2024-03-22T06:47:38;63.41;40.66;77.04;;
82130;Laerm;75912;50.450;9.816;2024-03-22T06:50:04;61.92;40.02;76.36;;
82130;Laerm;75912;50.450;9.816;2024-03-22T06:52:29;61.59;42.72;72.12;;
82130;Laerm;75912;50.450;9.816;2024-03-22T06:54:54;62.26;42.15;75.51;;
82130;Laerm;75912;50.450;9.816;2024-03-22T06:57:20;59.42;39.85;72.34;;
82130;Laerm;75912;50.450;9.816;2024-03-22T06:59:45;61.55;39.29;72.53;;
82130;Laerm;75912;50.450;9.816;2024-03-22T07:02:10;61.67;39.79;72.84;;
82130;Laerm;75912;50.450;9.816;2024-03-22T07:04:38;53.17;38.16;66.68;;
82130;Laerm;75912;50.450;9.816;2024-03-22T07:07:03;62.83;41.03;74.68;;
82130;Laerm;75912;50.450;9.816;2024-03-22T07:09:28;61.86;40.26;74.21;;
82130;Laerm;75912;50.450;9.816;2024-03-22T07:11:55;59.70;40.26;72.36;;
82130;Laerm;75912;50.450;9.816;2024-03-22T07:14:20;61.00;39.97;72.44;;
82130;Laerm;75912;50.450;9.816;2024-03-22T07:16:45;62.77;41.13;73.52;;
82130;Laerm;75912;50.450;9.816;2024-03-22T07:19:11;60.23;38.94;74.10;;
82130;Laerm;75912;50.450;9.816;2024-03-22T07:21:36;60.95;39.01;74.06;;
82130;Laerm;75912;50.450;9.816;2024-03-22T07:24:02;62.31;42.04;73.02;;
82130;Laerm;75912;50.450;9.816;2024-03-22T07:26:28;60.74;39.49;73.01;;
82130;Laerm;75912;50.450;9.816;2024-03-22T07:28:54;60.01;39.92;71.76;;
82130;Laerm;75912;50.450;9.816;2024-03-22T07:31:19;64.41;43.74;76.13;;
82130;Laerm;75912;50.450;9.816;2024-03-22T07:33:45;61.93;40.83;72.64;;
82130;Laerm;75912;50.450;9.816;2024-03-22T07:36:10;61.12;40.18;72.65;;
82130;Laerm;75912;50.450;9.816;2024-03-22T07:38:35;61.34;40.00;74.34;;
82130;Laerm;75912;50.450;9.816;2024-03-22T07:41:01;61.21;39.82;74.73;;
82130;Laerm;75912;50.450;9.816;2024-03-22T07:43:26;59.92;37.63;72.19;;
82130;Laerm;75912;50.450;9.816;2024-03-22T07:45:52;61.17;37.68;75.60;;
82130;Laerm;75912;50.450;9.816;2024-03-22T07:48:17;60.95;39.39;74.09;;
82130;Laerm;75912;50.450;9.816;2024-03-22T07:50:43;62.59;40.79;72.36;;
82130;Laerm;75912;50.450;9.816;2024-03-22T07:53:09;62.07;38.75;73.43;;
82130;Laerm;75912;50.450;9.816;2024-03-22T07:55:34;59.54;39.08;74.47;;
82130;Laerm;75912;50.450;9.816;2024-03-22T07:58:00;64.52;40.82;79.95;;
82130;Laerm;75912;50.450;9.816;2024-03-22T08:00:25;57.21;37.45;74.09;;
82130;Laerm;75912;50.450;9.816;2024-03-22T08:02:51;62.20;41.25;70.80;;
82130;Laerm;75912;50.450;9.816;2024-03-22T08:05:16;65.33;54.75;75.83;;
82130;Laerm;75912;50.450;9.816;2024-03-22T08:07:42;60.87;38.04;71.46;;
82130;Laerm;75912;50.450;9.816;2024-03-22T08:10:08;62.76;38.54;75.57;;
82130;Laerm;75912;50.450;9.816;2024-03-22T08:12:34;63.76;39.08;76.15;;
82130;Laerm;75912;50.450;9.816;2024-03-22T08:14:59;63.92;38.04;77.76;;
82130;Laerm;75912;50.450;9.816;2024-03-22T08:17:24;60.19;37.88;72.84;;
82130;Laerm;75912;50.450;9.816;2024-03-22T08:19:50;63.45;37.92;76.49;;
82130;Laerm;75912;50.450;9.816;2024-03-22T08:22:15;61.42;38.84;74.84;;
82130;Laerm;75912;50.450;9.816;2024-03-22T08:24:40;61.62;40.48;76.11;;
82130;Laerm;75912;50.450;9.816;2024-03-22T08:27:05;61.81;37.38;74.34;;
82130;Laerm;75912;50.450;9.816;2024-03-22T08:29:31;60.57;38.88;70.41;;
82130;Laerm;75912;50.450;9.816;2024-03-22T08:31:56;62.00;37.15;75.41;;
82130;Laerm;75912;50.450;9.816;2024-03-22T08:34:21;60.61;36.96;76.94;;
82130;Laerm;75912;50.450;9.816;2024-03-22T08:36:47;62.40;37.94;74.34;;
82130;Laerm;75912;50.450;9.816;2024-03-22T08:39:12;61.68;37.82;76.40;;
82130;Laerm;75912;50.450;9.816;2024-03-22T08:41:38;61.87;37.65;72.31;;
82130;Laerm;75912;50.450;9.816;2024-03-22T08:44:03;60.81;40.06;76.37;;
82130;Laerm;75912;50.450;9.816;2024-03-22T08:46:28;57.11;36.58;69.01;;
82130;Laerm;75912;50.450;9.816;2024-03-22T08:48:54;63.55;37.48;73.24;;
82130;Laerm;75912;50.450;9.816;2024-03-22T08:51:20;62.50;36.63;74.18;;
82130;Laerm;75912;50.450;9.816;2024-03-22T08:53:45;64.37;41.83;74.55;;
82130;Laerm;75912;50.450;9.816;2024-03-22T08:56:11;62.82;40.88;74.68;;
82130;Laerm;75912;50.450;9.816;2024-03-22T08:58:36;64.66;41.06;78.45;;
82130;Laerm;75912;50.450;9.816;2024-03-22T09:01:01;60.66;37.92;75.84;;
82130;Laerm;75912;50.450;9.816;2024-03-22T09:03:27;62.17;38.54;74.30;;
82130;Laerm;75912;50.450;9.816;2024-03-22T09:05:52;58.41;36.72;76.23;;
82130;Laerm;75912;50.450;9.816;2024-03-22T09:08:18;63.25;40.99;77.74;;
82130;Laerm;75912;50.450;9.816;2024-03-22T09:10:44;60.84;38.20;73.38;;
82130;Laerm;75912;50.450;9.816;2024-03-22T09:13:10;62.36;38.55;72.84;;
82130;Laerm;75912;50.450;9.816;2024-03-22T09:15:37;61.24;39.40;78.14;;
82130;Laerm;75912;50.450;9.816;2024-03-22T09:18:02;63.61;39.40;76.45;;
82130;Laerm;75912;50.450;9.816;2024-03-22T09:20:28;64.51;40.31;79.69;;
82130;Laerm;75912;50.450;9.816;2024-03-22T09:22:53;61.28;38.08;75.77;;
82130;Laerm;75912;50.450;9.816;2024-03-22T09:25:19;63.05;39.23;77.48;;
82130;Laerm;75912;50.450;9.816;2024-03-22T09:27:44;58.28;38.48;71.22;;
82130;Laerm;75912;50.450;9.816;2024-03-22T09:30:09;62.90;40.84;72.62;;
82130;Laerm;75912;50.450;9.816;2024-03-22T09:32:35;60.43;39.71;72.90;;
82130;Laerm;75912;50.450;9.816;2024-03-22T09:35:00;63.39;39.93;76.02;;
82130;Laerm;75912;50.450;9.816;2024-03-22T09:37:26;62.24;38.54;73.04;;
82130;Laerm;75912;50.450;9.816;2024-03-22T09:39:51;62.93;38.64;74.59;;
82130;Laerm;75912;50.450;9.816;2024-03-22T09:42:16;61.85;40.24;72.52;;
82130;Laerm;75912;50.450;9.816;2024-03-22T09:44:48;60.11;37.73;72.69;;
82130;Laerm;75912;50.450;9.816;2024-03-22T09:47:17;64.73;41.38;78.26;;
82130;Laerm;75912;50.450;9.816;2024-03-22T09:49:42;61.14;37.75;74.40;;
82130;Laerm;75912;50.450;9.816;2024-03-22T09:52:11;58.07;36.67;66.29;;
82130;Laerm;75912;50.450;9.816;2024-03-22T09:54:37;62.90;40.94;76.91;;
82130;Laerm;75912;50.450;9.816;2024-03-22T09:57:03;61.44;38.57;74.92;;
82130;Laerm;75912;50.450;9.816;2024-03-22T09:59:29;62.01;38.77;70.88;;
82130;Laerm;75912;50.450;9.816;2024-03-22T10:01:54;57.29;37.23;70.36;;
82130;Laerm;75912;50.450;9.816;2024-03-22T10:04:20;62.48;38.45;78.66;;
82130;Laerm;75912;50.450;9.816;2024-03-22T10:06:46;61.02;38.93;74.94;;
82130;Laerm;75912;50.450;9.816;2024-03-22T10:09:12;61.43;36.53;74.86;;
82130;Laerm;75912;50.450;9.816;2024-03-22T10:11:37;63.38;36.55;75.72;;
82130;Laerm;75912;50.450;9.816;2024-03-22T10:14:03;56.45;36.20;69.46;;
82130;Laerm;75912;50.450;9.816;2024-03-22T10:16:32;59.05;37.25;71.99;;
82130;Laerm;75912;50.450;9.816;2024-03-22T10:18:59;63.62;39.05;73.90;;
82130;Laerm;75912;50.450;9.816;2024-03-22T10:21:24;62.92;41.94;75.06;;
82130;Laerm;75912;50.450;9.816;2024-03-22T10:23:49;62.55;37.12;73.80;;
82130;Laerm;75912;50.450;9.816;2024-03-22T10:26:15;61.55;37.62;73.33;;
82130;Laerm;75912;50.450;9.816;2024-03-22T10:28:44;62.57;37.87;74.97;;
82130;Laerm;75912;50.450;9.816;2024-03-22T10:31:10;60.26;38.08;76.03;;
82130;Laerm;75912;50.450;9.816;2024-03-22T10:33:35;63.68;37.40;76.36;;
82130;Laerm;75912;50.450;9.816;2024-03-22T10:36:00;62.84;36.47;74.74;;
82130;Laerm;75912;50.450;9.816;2024-03-22T10:38:27;65.84;43.63;80.51;;
82130;Laerm;75912;50.450;9.816;2024-03-22T10:40:53;63.66;38.03;74.13;;
82130;Laerm;75912;50.450;9.816;2024-03-22T10:43:19;59.53;36.26;71.90;;
82130;Laerm;75912;50.450;9.816;2024-03-22T10:45:45;59.60;36.27;75.33;;
82130;Laerm;75912;50.450;9.816;2024-03-22T10:48:13;64.10;42.08;74.58;;
82130;Laerm;75912;50.450;9.816;2024-03-22T10:50:41;62.90;39.11;78.20;;
82130;Laerm;75912;50.450;9.816;2024-03-22T10:53:13;61.82;41.52;74.20;;
82130;Laerm;75912;50.450;9.816;2024-03-22T10:55:44;62.47;40.67;72.99;;
82130;Laerm;75912;50.450;9.816;2024-03-22T11:01:01;63.51;42.14;75.68;;
82130;Laerm;75912;50.450;9.816;2024-03-22T11:03:30;62.67;42.42;73.35;;
82130;Laerm;75912;50.450;9.816;2024-03-22T11:05:56;65.18;45.31;78.10;;
82130;Laerm;75912;50.450;9.816;2024-03-22T11:08:24;60.04;38.88;71.12;;
82130;Laerm;75912;50.450;9.816;2024-03-22T11:10:51;59.09;39.11;70.74;;
82130;Laerm;75912;50.450;9.816;2024-03-22T11:13:17;62.62;40.84;72.91;;
82130;Laerm;75912;50.450;9.816;2024-03-22T11:15:42;60.16;39.03;72.27;;
82130;Laerm;75912;50.450;9.816;2024-03-22T11:18:08;64.51;42.12;79.45;;
82130;Laerm;75912;50.450;9.816;2024-03-22T11:20:36;62.97;39.85;75.45;;
82130;Laerm;75912;50.450;9.816;2024-03-22T11:23:03;63.13;39.01;74.24;;
82130;Laerm;75912;50.450;9.816;2024-03-22T11:25:28;61.06;38.36;72.91;;
82130;Laerm;75912;50.450;9.816;2024-03-22T11:27:56;63.24;37.47;76.10;;
82130;Laerm;75912;50.450;9.816;2024-03-22T11:30:24;61.99;39.98;76.04;;
82130;Laerm;75912;50.450;9.816;2024-03-22T11:32:49;64.50;44.19;79.73;;
82130;Laerm;75912;50.450;9.816;2024-03-22T11:35:15;60.78;40.85;74.13;;
82130;Laerm;75912;50.450;9.816;2024-03-22T11:37:40;63.22;44.96;73.94;;
82130;Laerm;75912;50.450;9.816;2024-03-22T11:40:08;61.77;38.79;72.73;;
82130;Laerm;75912;50.450;9.816;2024-03-22T11:42:35;62.49;41.68;74.18;;
82130;Laerm;75912;50.450;9.816;2024-03-22T11:45:01;61.98;40.61;76.98;;
82130;Laerm;75912;50.450;9.816;2024-03-22T11:47:26;63.54;40.91;81.26;;
82130;Laerm;75912;50.450;9.816;2024-03-22T11:49:52;62.83;41.00;73.99;;
82130;Laerm;75912;50.450;9.816;2024-03-22T11:52:17;63.47;38.03;76.23;;
82130;Laerm;75912;50.450;9.816;2024-03-22T11:54:42;62.81;38.69;73.46;;
82130;Laerm;75912;50.450;9.816;2024-03-22T11:57:10;61.97;41.13;73.33;;
82130;Laerm;75912;50.450;9.816;2024-03-22T11:59:36;62.92;39.43;76.45;;
82130;Laerm;75912;50.450;9.816;2024-03-22T12:02:01;60.09;36.79;75.65;;
82130;Laerm;75912;50.450;9.816;2024-03-22T12:04:26;64.43;41.51;75.50;;
82130;Laerm;75912;50.450;9.816;2024-03-22T12:06:52;62.01;38.94;74.16;;
82130;Laerm;75912;50.450;9.816;2024-03-22T12:09:18;62.92;37.09;73.19;;
82130;Laerm;75912;50.450;9.816;2024-03-22T12:11:43;57.82;36.31;70.74;;
82130;Laerm;75912;50.450;9.816;2024-03-22T12:14:09;62.35;40.65;73.79;;
82130;Laerm;75912;50.450;9.816;2024-03-22T12:16:34;62.28;38.68;75.30;;
82130;Laerm;75912;50.450;9.816;2024-03-22T12:18:59;62.22;36.73;75.59;;
82130;Laerm;75912;50.450;9.816;2024-03-22T12:21:24;64.28;43.18;75.92;;
82130;Laerm;75912;50.450;9.816;2024-03-22T12:23:50;63.03;41.05;76.87;;
82130;Laerm;75912;50.450;9.816;2024-03-22T12:26:15;64.62;40.68;81.14;;
82130;Laerm;75912;50.450;9.816;2024-03-22T12:28:40;65.09;46.68;78.18;;
82130;Laerm;75912;50.450;9.816;2024-03-22T12:31:07;60.53;38.11;72.24;;
82130;Laerm;75912;50.450;9.816;2024-03-22T12:33:33;62.50;41.87;73.66;;
82130;Laerm;75912;50.450;9.816;2024-03-22T12:35:58;60.69;43.05;74.80;;
82130;Laerm;75912;50.450;9.816;2024-03-22T12:38:23;63.80;40.50;75.70;;
82130;Laerm;75912;50.450;9.816;2024-03-22T12:40:49;62.69;40.55;72.81;;
82130;Laerm;75912;50.450;9.816;2024-03-22T12:43:15;63.31;39.18;78.21;;
82130;Laerm;75912;50.450;9.816;2024-03-22T12:45:40;63.28;40.88;73.74;;
82130;Laerm;75912;50.450;9.816;2024-03-22T12:48:05;64.75;35.85;77.80;;
82130;Laerm;75912;50.450;9.816;2024-03-22T12:50:31;63.62;54.81;82.98;;
82130;Laerm;75912;50.450;9.816;2024-03-22T12:52:56;65.43;54.56;73.92;;
82130;Laerm;75912;50.450;9.816;2024-03-22T12:55:22;64.82;53.64;76.47;;
82130;Laerm;75912;50.450;9.816;2024-03-22T12:57:47;64.71;55.98;75.21;;
82130;Laerm;75912;50.450;9.816;2024-03-22T13:00:13;64.21;54.01;73.40;;
82130;Laerm;75912;50.450;9.816;2024-03-22T13:02:43;63.83;54.35;77.18;;
82130;Laerm;75912;50.450;9.816;2024-03-22T13:05:08;65.16;54.37;75.26;;
82130;Laerm;75912;50.450;9.816;2024-03-22T13:07:35;60.86;37.83;72.81;;
82130;Laerm;75912;50.450;9.816;2024-03-22T13:10:01;63.20;44.23;71.86;;
82130;Laerm;75912;50.450;9.816;2024-03-22T13:12:26;59.74;36.16;72.31;;
82130;Laerm;75912;50.450;9.816;2024-03-22T13:14:52;61.88;37.71;73.66;;
82130;Laerm;75912;50.450;9.816;2024-03-22T13:17:18;63.56;36.61;76.92;;
82130;Laerm;75912;50.450;9.816;2024-03-22T13:19:43;63.49;38.91;76.82;;
82130;Laerm;75912;50.450;9.816;2024-03-22T13:22:09;63.64;38.44;75.57;;
82130;Laerm;75912;50.450;9.816;2024-03-22T13:24:34;64.35;37.05;77.32;;
82130;Laerm;75912;50.450;9.816;2024-03-22T13:27:00;62.72;39.09;75.66;;
82130;Laerm;75912;50.450;9.816;2024-03-22T13:29:25;60.84;38.10;72.02;;
82130;Laerm;75912;50.450;9.816;2024-03-22T13:31:51;60.51;37.14;73.38;;
82130;Laerm;75912;50.450;9.816;2024-03-22T13:34:17;63.51;36.10;74.71;;
82130;Laerm;75912;50.450;9.816;2024-03-22T13:36:42;62.30;44.20;71.38;;
82130;Laerm;75912;50.450;9.816;2024-03-22T13:39:07;61.13;38.81;72.88;;